Terminal Aerodrome Forecast
Issued by NWS

Home | Current Version | Previous Version | Text Only | Print | Product List | Glossary Off
Versions: 1 2 3 4 5 6 7 8 9 10 11 12 13

000
FTUS43 KICT 271720
TAFRSL
TAF
KRSL 271720Z 2718/2818 VRB06KT P6SM SCT035 BKN080
     FM272000 36012KT P6SM BKN035
     FM280200 35014KT P6SM SCT060
     FM280400 34011KT P6SM BKN090
     FM280800 31008KT P6SM SCT110=

USA.gov is the U.S. government's official web portal to all federal, state and local government web resources and services.